Time;durP1;ratioP1;P1;durP2;ratioP2;P2;SDS_P1;SDS_P2;PMS_P1;PMS_P2;Temp;Humidity;BMP_temperature;BMP_pressure;BME280_temperature;BME280_humidity;BME280_pressure;Samples;Min_cycle;Max_cycle;Signal;HPM_P1;HPM_P2
2022/07/10 00:00:24;;;;;;;;;;;;;;;15.39;72.87;102947.59;4986254;28;20535;-67
2022/07/10 00:02:52;;;;;;;6.90;2.17;;;;;;;15.38;72.71;102946.69;4985000;28;20004;-67
2022/07/10 00:05:17;;;;;;;7.78;1.85;;;;;;;15.31;73.35;102946.84;4984958;28;20477;-68
2022/07/10 00:07:42;;;;;;;4.63;1.70;;;;;;;15.17;73.66;102945.34;4984878;28;20054;-69
2022/07/10 00:10:08;;;;;;;4.60;1.55;;;;;;;15.22;73.21;102947.91;4986450;28;20030;-66
2022/07/10 00:12:33;;;;;;;6.13;1.60;;;;;;;15.12;73.63;102945.47;4988668;28;20018;-66
2022/07/10 00:14:59;;;;;;;5.00;1.60;;;;;;;15.10;73.26;102931.34;4989382;28;20031;-68
2022/07/10 00:17:25;;;;;;;7.18;2.08;;;;;;;15.02;73.76;102934.13;4988157;28;20077;-69
2022/07/10 00:19:50;;;;;;;7.57;1.63;;;;;;;14.93;74.04;102936.09;4989135;28;20486;-68
2022/07/10 00:22:16;;;;;;;6.63;1.70;;;;;;;14.80;74.75;102932.78;4987317;28;20033;-68
2022/07/10 00:24:41;;;;;;;4.68;1.48;;;;;;;14.76;74.63;102937.25;4992179;28;20032;-66
2022/07/10 00:27:06;;;;;;;5.50;1.85;;;;;;;14.64;74.93;102933.94;4990963;28;20064;-68
2022/07/10 00:29:32;;;;;;;6.32;1.35;;;;;;;14.65;74.82;102930.34;4987646;28;20053;-69
2022/07/10 00:31:57;;;;;;;2.85;1.60;;;;;;;14.60;75.27;102936.66;4988352;28;20551;-68
2022/07/10 00:34:23;;;;;;;6.60;1.75;;;;;;;14.62;75.25;102930.41;4988466;28;20053;-64
2022/07/10 00:36:48;;;;;;;5.28;1.50;;;;;;;14.60;75.61;102926.91;4988240;28;20065;-68
2022/07/10 00:39:13;;;;;;;5.13;1.63;;;;;;;14.53;76.34;102933.22;4979584;28;20038;-66
2022/07/10 00:41:39;;;;;;;5.65;1.75;;;;;;;14.52;76.15;102926.16;4967861;28;20070;-68
2022/07/10 00:44:04;;;;;;;4.13;1.52;;;;;;;14.43;76.23;102915.72;4968587;28;20033;-67
2022/07/10 00:46:31;;;;;;;8.48;1.83;;;;;;;14.29;77.25;102919.47;4986562;28;20069;-68
2022/07/10 00:48:57;;;;;;;11.95;1.65;;;;;;;14.27;77.51;102914.19;4988203;28;20089;-67
2022/07/10 00:51:27;;;;;;;5.28;1.45;;;;;;;14.26;77.00;102916.84;4988028;28;20023;-68
2022/07/10 00:53:53;;;;;;;5.32;1.60;;;;;;;14.27;77.09;102914.19;4988033;28;20031;-67
2022/07/10 00:56:21;;;;;;;7.63;1.80;;;;;;;14.22;77.56;102916.03;4986968;28;20068;-67
2022/07/10 00:58:47;;;;;;;8.27;2.03;;;;;;;14.22;77.49;102918.69;5005701;28;20366;-68
2022/07/10 01:01:12;;;;;;;4.70;1.63;;;;;;;14.31;77.28;102930.94;5006945;28;20075;-68
2022/07/10 01:03:38;;;;;;;2.60;1.40;;;;;;;14.38;76.91;102919.31;5007520;28;20376;-68
2022/07/10 01:06:03;;;;;;;6.22;1.90;;;;;;;14.42;76.75;102921.91;5008616;28;20520;-67
2022/07/10 01:08:28;;;;;;;6.75;1.70;;;;;;;14.46;76.34;102916.53;5005834;28;20050;-67
2022/07/10 01:10:54;;;;;;;1.67;1.10;;;;;;;14.49;76.37;102920.91;5007892;28;20073;-68
2022/07/10 01:13:19;;;;;;;7.20;1.80;;;;;;;14.48;75.75;102920.03;5014196;22;20076;-68
2022/07/10 01:15:45;;;;;;;6.90;1.70;;;;;;;14.50;75.59;102920.00;5018830;28;20069;-67
2022/07/10 01:18:10;;;;;;;4.43;1.40;;;;;;;14.55;75.54;102910.19;5026781;28;20499;-68
2022/07/10 01:20:36;;;;;;;4.18;1.50;;;;;;;14.50;75.44;102918.22;5025850;28;20092;-68
2022/07/10 01:23:01;;;;;;;7.05;1.52;;;;;;;14.55;75.25;102917.28;5026307;28;20041;-66
2022/07/10 01:25:27;;;;;;;6.22;1.30;;;;;;;14.55;75.09;102912.84;5027486;28;20175;-67
2022/07/10 01:27:52;;;;;;;4.50;1.33;;;;;;;14.48;75.21;102911.22;5026675;28;20030;-68
2022/07/10 01:30:19;;;;;;;4.38;1.15;;;;;;;14.51;75.18;102897.91;5027246;28;20025;-69
2022/07/10 01:32:44;;;;;;;5.85;1.75;;;;;;;14.46;75.43;102897.97;5014121;28;20046;-67
2022/07/10 01:35:10;;;;;;;2.40;1.13;;;;;;;14.42;75.33;102903.34;5006707;28;20096;-68
2022/07/10 01:37:35;;;;;;;4.05;1.33;;;;;;;14.37;75.77;102899.00;5006395;28;20041;-67
2022/07/10 01:40:01;;;;;;;4.65;1.55;;;;;;;14.39;76.10;102894.53;5006210;28;20063;-68
2022/07/10 01:42:26;;;;;;;2.85;1.35;;;;;;;14.40;75.89;102888.34;5007400;28;20029;-68
2022/07/10 01:44:51;;;;;;;4.32;1.75;;;;;;;14.29;76.46;102887.66;5006720;28;20478;-68
2022/07/10 01:47:17;;;;;;;2.53;1.38;;;;;;;14.27;76.53;102884.16;5007060;28;20022;-68
2022/07/10 01:49:43;;;;;;;4.47;1.50;;;;;;;14.19;76.78;102883.41;5006541;28;20105;-67
2022/07/10 01:52:09;;;;;;;5.40;1.33;;;;;;;14.11;77.40;102881.75;5006343;28;20025;-68
2022/07/10 01:54:34;;;;;;;2.70;1.20;;;;;;;14.05;78.02;102881.84;5007511;28;20448;-68
2022/07/10 01:57:00;;;;;;;8.48;1.48;;;;;;;14.03;78.44;102878.34;5007027;28;20065;-69
2022/07/10 01:59:25;;;;;;;5.35;1.55;;;;;;;13.99;78.36;102885.47;5006248;28;20086;-66
2022/07/10 02:01:50;;;;;;;4.20;1.48;;;;;;;14.02;78.26;102881.88;5004828;28;20026;-68
2022/07/10 02:07:00;;;;;;;5.35;1.58;;;;;;;14.05;77.98;102881.00;5006754;28;20384;-68
2022/07/10 02:09:25;;;;;;;3.17;1.45;;;;;;;14.13;77.74;102887.91;5005600;28;20038;-68
2022/07/10 02:11:50;;;;;;;2.50;1.15;;;;;;;14.19;77.55;102888.69;5006365;28;20044;-67
2022/07/10 02:14:15;;;;;;;6.28;1.67;;;;;;;14.24;76.89;102886.84;5006515;28;20033;-68
2022/07/10 02:16:41;;;;;;;5.32;1.30;;;;;;;14.25;76.74;102893.91;5007450;28;20042;-70
2022/07/10 02:19:06;;;;;;;5.82;1.38;;;;;;;14.23;77.09;102885.97;5007095;28;20025;-69
2022/07/10 02:21:31;;;;;;;3.72;1.42;;;;;;;14.33;77.07;102881.38;5004432;28;20029;-69
2022/07/10 02:23:57;;;;;;;4.93;1.30;;;;;;;14.40;76.76;102882.16;5006314;28;20120;-68
2022/07/10 02:26:22;;;;;;;5.93;1.40;;;;;;;14.50;76.68;102885.53;5005550;28;20038;-65
2022/07/10 02:28:48;;;;;;;4.50;1.30;;;;;;;14.66;76.27;102878.19;5006533;28;20053;-67
2022/07/10 02:31:13;;;;;;;6.25;1.17;;;;;;;14.80;76.02;102861.13;5006184;28;20099;-67
2022/07/10 02:33:38;;;;;;;3.20;1.30;;;;;;;14.89;75.31;102851.22;5003356;28;20024;-68
2022/07/10 02:36:04;;;;;;;5.28;1.50;;;;;;;14.97;74.92;102856.38;5024111;28;20598;-68
2022/07/10 02:38:30;;;;;;;5.78;1.40;;;;;;;14.98;75.43;102866.09;5023464;28;20079;-68
2022/07/10 02:40:55;;;;;;;6.60;1.35;;;;;;;15.05;75.16;102874.78;5013701;28;20026;-68
2022/07/10 02:43:20;;;;;;;4.03;1.23;;;;;;;15.10;74.65;102872.94;5005233;28;20038;-67
2022/07/10 02:45:46;;;;;;;5.28;1.50;;;;;;;15.10;74.52;102877.34;5005335;28;20026;-68
2022/07/10 02:48:11;;;;;;;5.45;1.80;;;;;;;15.11;74.74;102874.66;5023924;28;20037;-68
2022/07/10 02:50:37;;;;;;;2.67;1.40;;;;;;;15.16;74.45;102874.56;5024655;28;20052;-68
2022/07/10 02:53:03;;;;;;;8.60;1.40;;;;;;;15.21;74.75;102879.78;5015485;28;20119;-68
2022/07/10 02:55:31;;;;;;;4.30;1.35;;;;;;;15.34;73.94;102875.97;5004010;28;20030;-67
2022/07/10 02:57:56;;;;;;;4.50;1.37;;;;;;;15.41;73.85;102872.25;5005036;28;20037;-68
2022/07/10 03:00:22;;;;;;;3.25;1.20;;;;;;;15.49;73.57;102876.53;5005943;28;20022;-68
2022/07/10 03:02:47;;;;;;;7.45;1.50;;;;;;;15.53;73.24;102867.56;5005860;28;20468;-68
2022/07/10 03:05:12;;;;;;;4.85;1.42;;;;;;;15.53;73.44;102872.88;5005036;28;20030;-68
2022/07/10 03:07:37;;;;;;;5.80;1.58;;;;;;;15.58;73.35;102873.69;5005176;28;20020;-67
2022/07/10 03:10:03;;;;;;;4.78;1.40;;;;;;;15.57;73.44;102869.28;5004410;28;20105;-68
2022/07/10 03:12:28;;;;;;;4.82;1.75;;;;;;;15.54;73.53;102864.03;5005370;28;20504;-69
2022/07/10 03:14:54;;;;;;;4.88;1.40;;;;;;;15.53;73.94;102860.50;5005844;28;20049;-67
2022/07/10 03:17:19;;;;;;;8.52;1.58;;;;;;;15.52;73.88;102857.88;5016823;28;20020;-67
2022/07/10 03:19:44;;;;;;;3.17;1.42;;;;;;;15.50;74.08;102857.03;5025431;28;20021;-67
2022/07/10 03:22:10;;;;;;;8.95;1.50;;;;;;;15.49;74.19;102845.53;5024046;28;20025;-67
2022/07/10 03:24:35;;;;;;;4.05;1.30;;;;;;;15.53;74.29;102854.28;5041185;28;20025;-66
2022/07/10 03:27:00;;;;;;;2.85;1.40;;;;;;;15.50;74.41;102849.06;5025790;28;20105;-69
2022/07/10 03:29:26;;;;;;;3.55;1.38;;;;;;;15.53;74.56;102849.88;5010897;28;20072;-68
2022/07/10 03:31:51;;;;;;;3.33;1.27;;;;;;;15.50;74.64;102849.06;5005777;28;20045;-68
2022/07/10 03:34:17;;;;;;;4.43;1.20;;;;;;;15.58;74.61;102854.19;5004832;28;20034;-68
2022/07/10 03:36:42;;;;;;;3.80;1.50;;;;;;;15.53;74.66;102849.88;5004873;28;20495;-68
2022/07/10 03:39:08;;;;;;;3.92;1.63;;;;;;;15.52;75.04;102848.13;5005530;28;20066;-68
2022/07/10 03:41:33;;;;;;;3.95;1.20;;;;;;;15.52;75.22;102842.81;5019659;28;20435;-66
2022/07/10 03:43:58;;;;;;;6.97;1.70;;;;;;;15.54;75.23;102842.78;5024985;28;20037;-68
2022/07/10 03:46:24;;;;;;;2.65;1.30;;;;;;;15.55;75.54;102844.53;5027553;28;20026;-66
2022/07/10 03:48:49;;;;;;;5.80;1.30;;;;;;;15.58;75.62;102851.53;5028089;28;20113;-67
2022/07/10 03:51:14;;;;;;;3.63;1.25;;;;;;;15.64;75.52;102846.97;5028250;28;20045;-68
2022/07/10 03:53:40;;;;;;;12.43;1.90;;;;;;;15.64;75.47;102846.97;4996732;28;20049;-68
2022/07/10 03:56:05;;;;;;;4.60;1.45;;;;;;;15.64;75.49;102841.66;4989790;28;20026;-68
2022/07/10 03:58:31;;;;;;;2.17;1.08;;;;;;;15.72;75.60;102838.81;4988814;28;20030;-68
2022/07/10 04:00:56;;;;;;;5.03;1.35;;;;;;;15.73;75.84;102831.69;4988471;28;20102;-67
2022/07/10 04:03:21;;;;;;;4.32;1.40;;;;;;;15.80;75.50;102841.28;4989387;28;20054;-68
2022/07/10 04:05:47;;;;;;;4.30;1.33;;;;;;;15.79;75.85;102823.59;5003219;28;20034;-67
2022/07/10 04:08:12;;;;;;;6.00;1.70;;;;;;;15.84;75.52;102827.03;5008299;28;20029;-69
2022/07/10 04:10:38;;;;;;;3.38;1.42;;;;;;;15.92;75.47;102825.03;5008355;28;20064;-63
2022/07/10 04:13:03;;;;;;;4.90;1.40;;;;;;;16.02;75.36;102817.72;5007826;28;20074;-67
2022/07/10 04:15:29;;;;;;;4.15;1.50;;;;;;;16.14;75.03;102813.88;5007794;28;20520;-68
2022/07/10 04:17:54;;;;;;;3.35;1.40;;;;;;;16.25;74.33;102824.25;5007621;28;20072;-68
2022/07/10 04:20:20;;;;;;;5.85;1.27;;;;;;;16.26;74.34;102822.47;5008035;28;20044;-70
2022/07/10 04:22:45;;;;;;;3.05;1.30;;;;;;;16.30;74.24;102826.78;5007841;28;20091;-68
2022/07/10 04:25:11;;;;;;;4.60;1.23;;;;;;;16.34;74.01;102830.25;5008635;28;20034;-67
2022/07/10 04:27:37;;;;;;;4.32;1.30;;;;;;;16.47;73.91;102825.47;5025331;28;20060;-66
2022/07/10 04:30:03;;;;;;;4.53;1.40;;;;;;;16.59;73.82;102824.25;5028416;28;20467;-67
2022/07/10 04:32:28;;;;;;;5.63;1.52;;;;;;;16.62;73.68;102834.81;5020805;28;20126;-67
2022/07/10 04:34:54;;;;;;;5.18;1.50;;;;;;;16.65;73.45;102838.25;5008663;28;20101;-68
2022/07/10 04:37:19;;;;;;;6.47;1.98;;;;;;;16.73;73.23;102839.81;5006787;28;20026;-67
2022/07/10 04:39:45;;;;;;;12.98;1.83;;;;;;;16.74;73.57;102839.78;5008581;28;20052;-68
2022/07/10 04:42:10;;;;;;;5.00;1.60;;;;;;;16.78;73.66;102840.56;5008356;28;20093;-69
2022/07/10 04:44:36;;;;;;;4.05;1.35;;;;;;;16.85;73.69;102836.81;5014015;28;20032;-68
2022/07/10 04:47:02;;;;;;;8.02;1.58;;;;;;;16.86;73.79;102841.22;5027181;28;20065;-62
2022/07/10 04:49:27;;;;;;;9.20;1.48;;;;;;;16.90;73.79;102848.22;5028015;28;20393;-65
2022/07/10 04:51:52;;;;;;;7.45;1.85;;;;;;;16.95;73.98;102848.09;5003618;28;20476;-64
2022/07/10 04:54:18;;;;;;;5.18;1.27;;;;;;;16.92;74.21;102849.03;5005868;28;20506;-62
2022/07/10 04:56:43;;;;;;;9.15;1.67;;;;;;;16.88;74.47;102852.69;5007052;28;20046;-62
2022/07/10 04:59:09;;;;;;;5.25;1.45;;;;;;;16.88;74.80;102847.38;5015907;28;20430;-62
2022/07/10 05:01:35;;;;;;;6.57;1.52;;;;;;;16.93;75.04;102850.78;5015079;28;20356;-63
2022/07/10 05:04:00;;;;;;;8.73;1.70;;;;;;;16.99;74.93;102847.06;5014924;28;20471;-63
2022/07/10 05:06:25;;;;;;;5.95;1.70;;;;;;;16.99;75.14;102851.50;5023662;28;20124;-63
2022/07/10 05:08:51;;;;;;;4.13;1.35;;;;;;;16.93;75.39;102856.13;5013594;28;20709;-65
2022/07/10 05:11:16;;;;;;;9.70;1.42;;;;;;;17.06;75.22;102850.41;5011048;28;20909;-60
2022/07/10 05:13:45;;;;;;;6.95;1.67;;;;;;;17.15;74.82;102858.19;5002560;28;20049;-63
2022/07/10 05:16:10;;;;;;;;;;;;;;;17.24;74.75;102854.34;5015502;28;20036;-62
2022/07/10 05:18:36;;;;;;;4.80;1.42;;;;;;;17.21;74.89;102851.78;5008125;28;19917;-63
2022/07/10 05:21:01;;;;;;;2.65;1.17;;;;;;;17.29;74.65;102854.22;5005925;28;20025;-62
2022/07/10 05:23:27;;;;;;;4.97;1.20;;;;;;;17.26;74.94;102852.53;5007397;28;20107;-63
2022/07/10 05:25:52;;;;;;;5.18;1.40;;;;;;;17.37;74.68;102854.84;5007018;28;20076;-63
2022/07/10 05:28:17;;;;;;;5.90;1.38;;;;;;;17.41;74.30;102861.84;5026362;28;20053;-62
2022/07/10 05:30:43;;;;;;;7.90;1.90;;;;;;;17.53;74.26;102849.06;5026756;28;20037;-63
2022/07/10 05:33:08;;;;;;;5.68;1.48;;;;;;;17.61;74.25;102847.00;5026688;28;20021;-64
2022/07/10 05:35:34;;;;;;;6.03;1.55;;;;;;;17.75;73.74;102848.34;5015776;28;20133;-61
2022/07/10 05:37:59;;;;;;;9.70;1.98;;;;;;;17.80;73.43;102843.75;5004531;28;20033;-64
2022/07/10 05:40:24;;;;;;;11.70;1.70;;;;;;;17.94;72.72;102840.63;5006395;28;20042;-61
2022/07/10 05:42:50;;;;;;;6.20;1.40;;;;;;;17.99;72.58;102837.81;5006080;28;20022;-63
2022/07/10 05:45:15;;;;;;;7.97;1.55;;;;;;;18.06;72.83;102839.34;5007003;28;20038;-68
2022/07/10 05:47:40;;;;;;;6.88;1.48;;;;;;;18.05;72.39;102840.28;5003765;28;20092;-65
2022/07/10 05:50:06;;;;;;;4.07;1.33;;;;;;;18.22;72.19;102841.53;5007320;28;20424;-63
2022/07/10 05:52:31;;;;;;;7.45;1.40;;;;;;;18.35;70.97;102842.84;5003096;28;20058;-64
2022/07/10 05:54:57;;;;;;;9.27;1.60;;;;;;;18.40;71.10;102832.88;4996490;28;20053;-63
2022/07/10 05:57:23;;;;;;;6.78;1.45;;;;;;;18.44;70.81;102831.84;5007480;28;20029;-61
2022/07/10 05:59:48;;;;;;;8.77;1.50;;;;;;;18.36;70.33;102831.22;5014838;28;20029;-64
2022/07/10 06:02:15;;;;;;;5.65;1.50;;;;;;;18.47;70.38;102836.19;5008778;28;20018;-63
2022/07/10 06:04:40;;;;;;;8.73;1.75;;;;;;;18.44;70.37;102837.19;5017301;28;20022;-64
2022/07/10 06:07:05;;;;;;;6.45;1.45;;;;;;;18.54;69.74;102831.50;5022839;28;20379;-62
2022/07/10 06:09:31;;;;;;;4.22;1.05;;;;;;;18.61;69.39;102824.16;5015269;28;20036;-63
2022/07/10 06:11:56;;;;;;;4.68;1.15;;;;;;;18.78;69.07;102826.22;5013238;28;20048;-62
2022/07/10 06:14:21;;;;;;;8.00;1.45;;;;;;;18.67;69.22;102835.47;5024919;28;20037;-62
2022/07/10 06:16:47;;;;;;;6.70;1.40;;;;;;;18.77;69.06;102828.00;5019433;28;20038;-62
2022/07/10 06:19:12;;;;;;;7.50;1.77;;;;;;;18.84;68.34;102831.31;5019405;28;20307;-63
2022/07/10 06:21:37;;;;;;;3.95;1.20;;;;;;;18.90;67.89;102833.75;5015351;28;20021;-63
2022/07/10 06:24:03;;;;;;;5.13;1.38;;;;;;;18.86;67.55;102842.81;5019441;28;20095;-63
2022/07/10 06:26:28;;;;;;;2.25;1.00;;;;;;;18.78;67.87;102834.22;5019150;28;20028;-63
2022/07/10 06:28:54;;;;;;;7.43;1.67;;;;;;;18.97;67.27;102836.19;5011654;28;20021;-62
2022/07/10 06:31:19;;;;;;;6.70;1.60;;;;;;;19.08;67.39;102842.00;5023307;28;20468;-63
2022/07/10 06:33:44;;;;;;;6.32;1.60;;;;;;;19.22;66.61;102837.94;5023131;28;20108;-63
2022/07/10 06:36:12;;;;;;;5.63;1.40;;;;;;;19.30;66.83;102830.50;5024217;28;20079;-63
2022/07/10 06:38:37;;;;;;;5.95;1.00;;;;;;;19.12;66.17;102824.97;5008486;28;20156;-62
2022/07/10 06:41:03;;;;;;;5.80;1.75;;;;;;;19.11;66.05;102833.03;5013802;28;20101;-63
2022/07/10 06:43:28;;;;;;;9.32;1.48;;;;;;;19.29;66.23;102837.66;5014867;28;20055;-63
2022/07/10 06:45:54;;;;;;;5.18;1.38;;;;;;;19.39;64.96;102840.81;5017993;28;20029;-64
2022/07/10 06:48:20;;;;;;;6.38;1.75;;;;;;;19.35;65.10;102843.69;5012486;28;20028;-63
2022/07/10 06:50:45;;;;;;;3.80;1.55;;;;;;;19.49;64.64;102837.78;5018340;28;20032;-63
2022/07/10 06:53:11;;;;;;;5.28;1.15;;;;;;;19.34;64.88;102836.59;5022760;28;20018;-61
2022/07/10 06:55:37;;;;;;;10.85;1.65;;;;;;;19.50;63.75;102844.88;5023487;28;20220;-62
2022/07/10 06:58:02;;;;;;;7.55;1.27;;;;;;;19.70;63.64;102847.63;5024953;28;20026;-64
2022/07/10 07:00:28;;;;;;;6.38;1.45;;;;;;;19.59;64.09;102844.50;5017208;28;20037;-62
2022/07/10 07:02:54;;;;;;;4.00;1.50;;;;;;;19.59;64.25;102847.16;5005966;28;20357;-61
2022/07/10 07:05:19;;;;;;;5.60;1.52;;;;;;;19.56;64.28;102844.63;5002284;28;20176;-64
2022/07/10 07:07:45;;;;;;;2.83;1.00;;;;;;;19.66;64.20;102848.66;5015231;28;20076;-61
2022/07/10 07:10:10;;;;;;;4.15;1.17;;;;;;;19.76;63.80;102849.16;5011346;28;20018;-62
2022/07/10 07:12:36;;;;;;;4.60;1.52;;;;;;;19.92;63.02;102849.41;5004381;28;20046;-63
2022/07/10 07:15:02;;;;;;;3.90;1.48;;;;;;;19.75;62.96;102847.41;5005458;28;20395;-62
2022/07/10 07:17:33;;;;;;;6.40;1.67;;;;;;;19.74;63.74;102851.03;5016502;28;20454;-64
2022/07/10 07:25:28;;;;;;;1.55;0.80;;;;;;;19.91;63.10;102858.38;5002197;28;20084;-63
2022/07/10 07:27:54;;;;;;;3.45;1.25;;;;;;;19.85;63.16;102852.38;5005344;28;20022;-62
2022/07/10 07:30:19;;;;;;;11.85;1.52;;;;;;;20.00;63.17;102848.19;5004235;28;20037;-62
2022/07/10 07:32:45;;;;;;;5.15;1.15;;;;;;;20.00;63.95;102842.84;5003134;28;20032;-62
2022/07/10 07:35:12;;;;;;;5.25;1.75;;;;;;;20.12;63.46;102839.69;5003905;28;20022;-64
2022/07/10 07:37:42;;;;;;;7.18;1.23;;;;;;;20.12;64.16;102852.19;5003808;28;20599;-62
2022/07/10 07:40:10;;;;;;;6.80;1.63;;;;;;;20.00;62.70;102837.50;5003299;28;20214;-63
2022/07/10 07:42:36;;;;;;;4.22;1.55;;;;;;;20.15;62.60;102842.25;5004278;28;20120;-62
2022/07/10 07:45:01;;;;;;;2.40;0.95;;;;;;;20.15;62.53;102855.63;5003762;28;20026;-63
2022/07/10 07:47:27;;;;;;;4.10;1.40;;;;;;;20.19;62.23;102851.88;5004865;28;20574;-63
2022/07/10 07:49:52;;;;;;;4.18;1.20;;;;;;;20.33;62.20;102851.28;5004845;28;20390;-64
2022/07/10 07:52:18;;;;;;;2.60;1.05;;;;;;;20.22;62.54;102853.53;5003505;28;20037;-62
2022/07/10 07:54:43;;;;;;;3.55;1.10;;;;;;;20.51;61.72;102859.44;5004703;28;20715;-63
2022/07/10 07:57:08;;;;;;;4.20;1.38;;;;;;;20.54;61.20;102858.41;5002613;28;20117;-63
2022/07/10 07:59:34;;;;;;;4.15;1.40;;;;;;;20.49;60.98;102860.41;5002118;28;20072;-63
2022/07/10 08:01:59;;;;;;;4.00;1.40;;;;;;;20.50;61.30;102857.66;5002274;28;20431;-62
2022/07/10 08:04:25;;;;;;;4.93;1.17;;;;;;;20.46;61.66;102850.72;5003425;28;20034;-62
2022/07/10 08:06:52;;;;;;;4.22;1.23;;;;;;;20.48;62.34;102856.00;5002724;28;20021;-62
2022/07/10 08:09:18;;;;;;;4.13;1.10;;;;;;;20.71;61.40;102853.19;5003346;28;20500;-62
2022/07/10 08:11:43;;;;;;;6.70;1.17;;;;;;;20.91;60.04;102853.22;5002182;28;20066;-60
2022/07/10 08:14:09;;;;;;;1.83;0.88;;;;;;;20.85;60.20;102857.03;4998992;28;20396;-60
2022/07/10 08:16:34;;;;;;;4.72;1.27;;;;;;;21.02;60.06;102850.94;5002277;28;20022;-62
2022/07/10 08:18:59;;;;;;;5.82;1.52;;;;;;;21.12;59.31;102851.38;5005720;28;20025;-61
2022/07/10 08:21:25;;;;;;;4.30;0.90;;;;;;;21.26;59.33;102857.88;5000779;28;20034;-62
2022/07/10 08:23:50;;;;;;;4.55;1.27;;;;;;;21.24;59.33;102846.34;5002723;28;20049;-64
2022/07/10 08:26:15;;;;;;;3.80;1.08;;;;;;;21.19;59.04;102841.25;5003640;28;20060;-63
2022/07/10 08:28:41;;;;;;;4.05;1.20;;;;;;;21.43;58.37;102852.56;5003387;28;20072;-61
2022/07/10 08:31:06;;;;;;;3.92;1.10;;;;;;;21.45;58.16;102852.50;5007746;28;20068;-63
2022/07/10 08:33:31;;;;;;;2.95;1.05;;;;;;;21.51;57.52;102845.97;4999076;28;20116;-63
2022/07/10 08:36:00;;;;;;;2.22;1.08;;;;;;;21.64;57.75;102852.47;5001275;28;20056;-63
2022/07/10 08:38:25;;;;;;;1.73;0.90;;;;;;;21.69;57.83;102845.06;5007257;28;20109;-62
2022/07/10 08:40:58;;;;;;;4.40;0.98;;;;;;;21.79;57.82;102850.03;5007778;28;20101;-63
2022/07/10 08:43:24;;;;;;;5.45;1.15;;;;;;;21.84;57.30;102837.22;5007722;28;20052;-62
2022/07/10 08:45:51;;;;;;;5.25;1.52;;;;;;;22.09;56.23;102841.34;5006336;28;20483;-62
2022/07/10 08:48:23;;;;;;;2.35;1.00;;;;;;;22.17;56.14;102849.88;5006917;28;20026;-64
2022/07/10 08:50:51;;;;;;;4.72;1.50;;;;;;;22.28;55.56;102846.66;5007345;28;20049;-64
2022/07/10 08:53:24;;;;;;;6.00;1.20;;;;;;;22.55;54.42;102835.34;5007198;28;20022;-65
2022/07/10 08:55:49;;;;;;;6.97;1.40;;;;;;;22.53;54.17;102825.66;5007613;28;20040;-64
2022/07/10 08:58:15;;;;;;;5.53;0.95;;;;;;;22.50;54.85;102833.88;5007999;28;20029;-64
2022/07/10 09:00:40;;;;;;;2.58;1.02;;;;;;;22.54;54.33;102832.75;5014235;28;20021;-63
2022/07/10 09:03:07;;;;;;;3.97;1.08;;;;;;;22.71;53.70;102831.88;5027220;28;20034;-63
2022/07/10 09:05:32;;;;;;;2.25;1.10;;;;;;;22.64;54.12;102835.84;5017142;28;20366;-63
2022/07/10 09:07:58;;;;;;;4.13;1.08;;;;;;;22.61;54.53;102826.16;5008094;28;20049;-63
2022/07/10 09:10:25;;;;;;;2.55;1.17;;;;;;;22.67;53.24;102828.47;5006491;28;20498;-62
2022/07/10 09:12:58;;;;;;;2.95;1.20;;;;;;;22.67;53.52;102830.31;5007419;28;20560;-63
2022/07/10 09:15:32;;;;;;;4.13;1.40;;;;;;;22.75;53.06;102822.69;5006666;28;20026;-63
2022/07/10 09:18:00;;;;;;;2.17;1.15;;;;;;;22.76;52.88;102820.88;5006813;28;20244;-63
2022/07/10 09:20:31;;;;;;;2.78;0.82;;;;;;;22.65;53.57;102813.41;5006867;28;20076;-63
2022/07/10 09:22:58;;;;;;;4.47;1.20;;;;;;;22.58;53.27;102810.19;5006649;28;20356;-63
2022/07/10 09:25:31;;;;;;;4.65;1.50;;;;;;;22.68;52.46;102814.13;5005236;28;20026;-63
2022/07/10 09:27:58;;;;;;;4.22;1.27;;;;;;;22.65;53.03;102816.97;5007190;28;20578;-64
2022/07/10 09:30:36;;;;;;;4.00;1.45;;;;;;;23.01;51.40;102814.16;5006436;28;20029;-59
2022/07/10 09:33:14;;;;;;;2.08;1.10;;;;;;;23.02;51.80;102819.44;5005920;28;20425;-65
2022/07/10 09:36:13;;;;;;;2.53;1.15;;;;;;;23.03;51.94;102814.94;5005828;28;20159;-63
2022/07/10 09:38:44;;;;;;;2.35;0.98;;;;;;;23.00;51.40;102818.69;5007613;28;20384;-63
2022/07/10 09:41:15;;;;;;;3.35;1.20;;;;;;;22.90;52.19;102817.47;5006678;28;20040;-63
2022/07/10 09:43:56;;;;;;;9.52;1.33;;;;;;;22.87;52.45;102823.00;5014322;28;20033;-63
2022/07/10 09:46:23;;;;;;;7.28;1.05;;;;;;;23.02;52.85;102810.53;5026764;28;20036;-69
2022/07/10 09:49:12;;;;;;;3.03;1.30;;;;;;;22.93;52.68;102826.19;5019796;28;20068;-65
2022/07/10 09:51:47;;;;;;;9.05;1.33;;;;;;;23.06;51.20;102815.63;5003262;28;20051;-63
2022/07/10 09:54:12;;;;;;;2.63;1.02;;;;;;;23.29;50.62;102820.63;5006401;28;20018;-64
2022/07/10 09:56:48;;;;;;;2.63;0.90;;;;;;;23.04;50.31;102812.16;5005846;28;20431;-63
2022/07/10 09:59:15;;;;;;;3.58;1.23;;;;;;;22.91;49.78;102803.91;5007107;28;20038;-64
2022/07/10 10:01:47;;;;;;;3.85;1.17;;;;;;;22.76;49.81;102810.13;5006324;28;20022;-64
2022/07/10 10:04:14;;;;;;;2.78;0.90;;;;;;;22.60;50.15;102805.59;5011416;28;20048;-64
2022/07/10 10:06:40;;;;;;;2.70;1.10;;;;;;;22.55;51.13;102805.81;5025739;28;20025;-65
2022/07/10 10:09:12;;;;;;;1.20;0.80;;;;;;;22.74;50.26;102803.97;5018457;28;21325;-64
2022/07/10 10:11:40;;;;;;;3.88;1.17;;;;;;;22.81;51.21;102808.06;5005780;28;20431;-65
2022/07/10 10:14:07;;;;;;;3.30;1.17;;;;;;;22.82;50.32;102802.59;5004821;28;20496;-64
2022/07/10 10:16:33;;;;;;;3.00;1.30;;;;;;;22.90;48.98;102804.88;5004608;28;20472;-65
2022/07/10 10:21:43;;;;;;;2.15;1.20;;;;;;;22.98;49.27;102807.13;5024285;28;20039;-65
2022/07/10 10:24:09;;;;;;;3.83;1.10;;;;;;;23.00;49.30;102804.34;5024823;28;20033;-64
2022/07/10 10:26:35;;;;;;;2.30;1.02;;;;;;;23.22;49.11;102796.81;4992154;28;20036;-64
2022/07/10 10:29:01;;;;;;;4.50;1.20;;;;;;;23.15;49.03;102805.31;5005748;28;20472;-63
2022/07/10 10:31:28;;;;;;;2.53;1.17;;;;;;;23.15;49.10;102787.34;5003375;28;20018;-65
2022/07/10 10:33:57;;;;;;;4.60;1.42;;;;;;;23.52;48.96;102794.28;4997999;28;20027;-65
2022/07/10 10:36:41;;;;;;;4.18;1.30;;;;;;;23.64;48.15;102790.88;5001853;28;20018;-64
2022/07/10 10:39:12;;;;;;;4.25;1.20;;;;;;;23.46;48.11;102796.38;5006373;28;20132;-65
2022/07/10 10:41:51;;;;;;;4.30;1.10;;;;;;;23.70;47.82;102792.34;5002960;28;20040;-63
2022/07/10 10:44:16;;;;;;;4.15;1.25;;;;;;;23.91;45.94;102792.88;5005847;28;20040;-64
2022/07/10 10:46:50;;;;;;;3.95;1.30;;;;;;;23.91;47.08;102795.56;5005666;28;20097;-64
2022/07/10 10:49:16;;;;;;;7.40;1.48;;;;;;;24.29;46.31;102793.34;5004390;28;20212;-64
2022/07/10 10:52:01;;;;;;;2.58;1.10;;;;;;;24.02;46.11;102792.19;5004851;28;20051;-64
2022/07/10 10:54:28;;;;;;;1.70;0.90;;;;;;;24.20;46.54;102798.31;5002505;28;20447;-63
2022/07/10 10:57:16;;;;;;;4.38;1.10;;;;;;;24.04;47.81;102786.72;5005533;28;20029;-64
2022/07/10 10:59:49;;;;;;;3.97;1.13;;;;;;;24.36;46.27;102792.84;5002370;28;20037;-66
2022/07/10 11:02:41;;;;;;;3.78;1.20;;;;;;;24.29;46.85;102793.34;5002836;28;20096;-64
2022/07/10 11:05:19;;;;;;;2.08;0.90;;;;;;;24.11;46.30;102790.81;5004931;28;20042;-65
2022/07/10 11:08:01;;;;;;;1.60;1.13;;;;;;;24.06;45.99;102795.59;5004198;28;20036;-65
2022/07/10 11:10:42;;;;;;;2.83;1.25;;;;;;;23.80;46.93;102792.63;4991926;28;20030;-65
2022/07/10 11:13:12;;;;;;;4.38;1.00;;;;;;;23.79;46.44;102786.41;5002128;28;20046;-64
2022/07/10 11:15:47;;;;;;;3.40;1.27;;;;;;;23.39;47.42;102784.22;5003538;28;20550;-60
2022/07/10 11:18:13;;;;;;;1.73;1.00;;;;;;;23.34;48.76;102786.31;5002874;28;20076;-63
2022/07/10 11:20:40;;;;;;;2.45;1.08;;;;;;;24.03;45.33;102772.41;5005064;28;20640;-63
2022/07/10 11:23:22;;;;;;;2.03;0.98;;;;;;;24.31;43.65;102776.13;5024688;28;20041;-65
2022/07/10 11:26:01;;;;;;;2.53;1.17;;;;;;;24.73;44.43;102768.13;5023404;28;20060;-64
2022/07/10 11:28:39;;;;;;;2.60;0.93;;;;;;;24.64;42.46;102779.47;5024033;28;20480;-64
2022/07/10 11:31:04;;;;;;;2.78;1.00;;;;;;;24.43;42.85;102779.88;5024538;28;20037;-63
2022/07/10 11:33:39;;;;;;;2.95;0.90;;;;;;;24.66;41.20;102780.25;5005011;28;20076;-65
2022/07/10 11:36:15;;;;;;;1.00;0.90;;;;;;;24.82;40.43;102768.47;5003216;28;20076;-64